sensor_id;sensor_type;location;lat;lon;timestamp;P1;durP1;ratioP1;P2;durP2;ratioP2
62582;SDS011;48641;51.676;5.808;2023-03-19T00:01:52;2.58;;;0.90;;
62582;SDS011;48641;51.676;5.808;2023-03-19T00:04:18;4.00;;;1.10;;
62582;SDS011;48641;51.676;5.808;2023-03-19T00:06:44;2.25;;;0.93;;
62582;SDS011;48641;51.676;5.808;2023-03-19T00:09:10;1.75;;;0.80;;
62582;SDS011;48641;51.676;5.808;2023-03-19T00:11:36;1.52;;;0.90;;
62582;SDS011;48641;51.676;5.808;2023-03-19T00:14:02;1.75;;;0.80;;
62582;SDS011;48641;51.676;5.808;2023-03-19T00:16:28;1.98;;;0.90;;
62582;SDS011;48641;51.676;5.808;2023-03-19T00:18:53;2.28;;;0.90;;
62582;SDS011;48641;51.676;5.808;2023-03-19T00:21:19;1.42;;;0.77;;
62582;SDS011;48641;51.676;5.808;2023-03-19T00:23:45;2.40;;;0.80;;
62582;SDS011;48641;51.676;5.808;2023-03-19T00:26:11;2.50;;;1.00;;
62582;SDS011;48641;51.676;5.808;2023-03-19T00:28:37;1.90;;;0.90;;
62582;SDS011;48641;51.676;5.808;2023-03-19T00:31:36;1.90;;;0.80;;
62582;SDS011;48641;51.676;5.808;2023-03-19T00:33:55;2.55;;;1.08;;
62582;SDS011;48641;51.676;5.808;2023-03-19T00:36:23;3.67;;;1.00;;
62582;SDS011;48641;51.676;5.808;2023-03-19T00:38:52;1.70;;;0.80;;
62582;SDS011;48641;51.676;5.808;2023-03-19T00:41:18;1.30;;;0.70;;
62582;SDS011;48641;51.676;5.808;2023-03-19T00:43:45;2.30;;;0.82;;
62582;SDS011;48641;51.676;5.808;2023-03-19T00:46:10;2.47;;;0.90;;
62582;SDS011;48641;51.676;5.808;2023-03-19T00:48:36;1.55;;;0.80;;
62582;SDS011;48641;51.676;5.808;2023-03-19T00:51:02;1.35;;;0.70;;
62582;SDS011;48641;51.676;5.808;2023-03-19T00:53:29;1.50;;;0.82;;
62582;SDS011;48641;51.676;5.808;2023-03-19T00:55:54;1.13;;;0.80;;
62582;SDS011;48641;51.676;5.808;2023-03-19T00:58:20;1.35;;;0.77;;
62582;SDS011;48641;51.676;5.808;2023-03-19T01:00:46;1.30;;;0.70;;
62582;SDS011;48641;51.676;5.808;2023-03-19T01:03:12;1.98;;;0.75;;
62582;SDS011;48641;51.676;5.808;2023-03-19T01:05:38;1.70;;;0.82;;
62582;SDS011;48641;51.676;5.808;2023-03-19T01:08:04;2.13;;;0.60;;
62582;SDS011;48641;51.676;5.808;2023-03-19T01:10:30;1.63;;;0.70;;
62582;SDS011;48641;51.676;5.808;2023-03-19T01:12:58;3.03;;;0.90;;
62582;SDS011;48641;51.676;5.808;2023-03-19T01:15:24;1.65;;;0.80;;
62582;SDS011;48641;51.676;5.808;2023-03-19T01:17:50;1.63;;;0.70;;
62582;SDS011;48641;51.676;5.808;2023-03-19T01:20:15;2.03;;;0.82;;
62582;SDS011;48641;51.676;5.808;2023-03-19T01:22:43;1.92;;;0.90;;
62582;SDS011;48641;51.676;5.808;2023-03-19T01:25:11;1.55;;;0.82;;
62582;SDS011;48641;51.676;5.808;2023-03-19T01:27:38;2.10;;;1.02;;
62582;SDS011;48641;51.676;5.808;2023-03-19T01:30:04;2.22;;;0.88;;
62582;SDS011;48641;51.676;5.808;2023-03-19T01:32:34;1.13;;;0.77;;
62582;SDS011;48641;51.676;5.808;2023-03-19T01:35:00;2.47;;;1.08;;
62582;SDS011;48641;51.676;5.808;2023-03-19T01:37:25;1.92;;;0.98;;
62582;SDS011;48641;51.676;5.808;2023-03-19T01:39:52;1.27;;;0.80;;
62582;SDS011;48641;51.676;5.808;2023-03-19T01:42:17;1.48;;;0.68;;
62582;SDS011;48641;51.676;5.808;2023-03-19T01:44:43;2.22;;;0.68;;
62582;SDS011;48641;51.676;5.808;2023-03-19T01:47:20;1.77;;;0.95;;
62582;SDS011;48641;51.676;5.808;2023-03-19T01:49:54;1.85;;;0.88;;
62582;SDS011;48641;51.676;5.808;2023-03-19T01:52:21;2.05;;;0.80;;
62582;SDS011;48641;51.676;5.808;2023-03-19T01:54:49;2.72;;;1.00;;
62582;SDS011;48641;51.676;5.808;2023-03-19T01:57:16;1.80;;;0.90;;
62582;SDS011;48641;51.676;5.808;2023-03-19T01:59:44;2.92;;;1.00;;
62582;SDS011;48641;51.676;5.808;2023-03-19T02:04:48;3.38;;;1.00;;
62582;SDS011;48641;51.676;5.808;2023-03-19T02:07:18;1.38;;;0.80;;
62582;SDS011;48641;51.676;5.808;2023-03-19T02:09:44;1.48;;;0.90;;
62582;SDS011;48641;51.676;5.808;2023-03-19T02:12:10;1.65;;;0.90;;
62582;SDS011;48641;51.676;5.808;2023-03-19T02:14:36;2.28;;;1.00;;
62582;SDS011;48641;51.676;5.808;2023-03-19T02:17:04;1.92;;;0.98;;
62582;SDS011;48641;51.676;5.808;2023-03-19T02:28:09;2.78;;;1.30;;
62582;SDS011;48641;51.676;5.808;2023-03-19T02:30:36;3.00;;;1.10;;
62582;SDS011;48641;51.676;5.808;2023-03-19T02:33:02;2.92;;;1.10;;
62582;SDS011;48641;51.676;5.808;2023-03-19T02:35:29;2.47;;;1.10;;
62582;SDS011;48641;51.676;5.808;2023-03-19T02:37:57;2.38;;;1.00;;
62582;SDS011;48641;51.676;5.808;2023-03-19T02:40:25;1.40;;;0.80;;
62582;SDS011;48641;51.676;5.808;2023-03-19T02:42:55;2.47;;;1.00;;
62582;SDS011;48641;51.676;5.808;2023-03-19T02:45:20;2.28;;;1.00;;
62582;SDS011;48641;51.676;5.808;2023-03-19T02:47:51;2.42;;;0.93;;
62582;SDS011;48641;51.676;5.808;2023-03-19T02:50:17;1.60;;;0.85;;
62582;SDS011;48641;51.676;5.808;2023-03-19T02:52:42;1.90;;;0.90;;
62582;SDS011;48641;51.676;5.808;2023-03-19T02:55:08;2.90;;;0.95;;
62582;SDS011;48641;51.676;5.808;2023-03-19T02:57:33;2.65;;;1.00;;
62582;SDS011;48641;51.676;5.808;2023-03-19T02:59:59;2.03;;;0.95;;
62582;SDS011;48641;51.676;5.808;2023-03-19T03:02:25;2.50;;;1.10;;
62582;SDS011;48641;51.676;5.808;2023-03-19T03:04:51;2.22;;;0.90;;
62582;SDS011;48641;51.676;5.808;2023-03-19T03:07:16;1.65;;;1.00;;
62582;SDS011;48641;51.676;5.808;2023-03-19T03:09:42;2.50;;;1.15;;
62582;SDS011;48641;51.676;5.808;2023-03-19T03:12:08;1.88;;;0.98;;
62582;SDS011;48641;51.676;5.808;2023-03-19T03:14:33;1.98;;;0.93;;
62582;SDS011;48641;51.676;5.808;2023-03-19T03:17:00;3.17;;;1.30;;
62582;SDS011;48641;51.676;5.808;2023-03-19T03:19:26;2.85;;;1.05;;
62582;SDS011;48641;51.676;5.808;2023-03-19T03:21:51;2.55;;;1.00;;
62582;SDS011;48641;51.676;5.808;2023-03-19T03:24:17;2.35;;;1.00;;
62582;SDS011;48641;51.676;5.808;2023-03-19T03:26:43;2.38;;;1.13;;
62582;SDS011;48641;51.676;5.808;2023-03-19T03:29:09;2.13;;;1.00;;
62582;SDS011;48641;51.676;5.808;2023-03-19T03:31:35;1.85;;;0.93;;
62582;SDS011;48641;51.676;5.808;2023-03-19T03:34:00;3.25;;;1.05;;
62582;SDS011;48641;51.676;5.808;2023-03-19T03:36:26;3.20;;;1.10;;
62582;SDS011;48641;51.676;5.808;2023-03-19T03:38:52;3.95;;;1.30;;
62582;SDS011;48641;51.676;5.808;2023-03-19T03:41:18;2.92;;;1.05;;
62582;SDS011;48641;51.676;5.808;2023-03-19T03:43:44;2.88;;;0.90;;
62582;SDS011;48641;51.676;5.808;2023-03-19T03:46:09;1.60;;;0.80;;
62582;SDS011;48641;51.676;5.808;2023-03-19T03:48:35;2.83;;;1.10;;
62582;SDS011;48641;51.676;5.808;2023-03-19T03:51:01;2.95;;;1.23;;
62582;SDS011;48641;51.676;5.808;2023-03-19T03:53:27;2.17;;;1.00;;
62582;SDS011;48641;51.676;5.808;2023-03-19T03:55:53;2.80;;;1.20;;
62582;SDS011;48641;51.676;5.808;2023-03-19T03:58:18;1.95;;;0.90;;
62582;SDS011;48641;51.676;5.808;2023-03-19T04:00:44;1.90;;;0.93;;
62582;SDS011;48641;51.676;5.808;2023-03-19T04:03:11;3.00;;;1.17;;
62582;SDS011;48641;51.676;5.808;2023-03-19T04:05:37;2.70;;;1.08;;
62582;SDS011;48641;51.676;5.808;2023-03-19T04:08:04;2.80;;;1.00;;
62582;SDS011;48641;51.676;5.808;2023-03-19T04:10:30;2.30;;;1.10;;
62582;SDS011;48641;51.676;5.808;2023-03-19T04:12:56;2.92;;;1.00;;
62582;SDS011;48641;51.676;5.808;2023-03-19T04:15:21;2.20;;;1.10;;
62582;SDS011;48641;51.676;5.808;2023-03-19T04:17:47;2.78;;;0.93;;
62582;SDS011;48641;51.676;5.808;2023-03-19T04:20:13;2.45;;;1.00;;
62582;SDS011;48641;51.676;5.808;2023-03-19T04:22:40;2.85;;;0.98;;
62582;SDS011;48641;51.676;5.808;2023-03-19T04:25:06;2.22;;;1.10;;
62582;SDS011;48641;51.676;5.808;2023-03-19T04:27:32;3.35;;;1.20;;
62582;SDS011;48641;51.676;5.808;2023-03-19T04:29:58;2.08;;;0.80;;
62582;SDS011;48641;51.676;5.808;2023-03-19T04:32:24;2.95;;;1.08;;
62582;SDS011;48641;51.676;5.808;2023-03-19T04:34:49;3.33;;;1.20;;
62582;SDS011;48641;51.676;5.808;2023-03-19T04:37:15;2.45;;;1.02;;
62582;SDS011;48641;51.676;5.808;2023-03-19T04:39:41;2.95;;;1.00;;
62582;SDS011;48641;51.676;5.808;2023-03-19T04:42:08;2.72;;;1.20;;
62582;SDS011;48641;51.676;5.808;2023-03-19T04:44:35;2.08;;;1.10;;
62582;SDS011;48641;51.676;5.808;2023-03-19T04:47:01;3.97;;;1.10;;
62582;SDS011;48641;51.676;5.808;2023-03-19T04:49:27;2.97;;;1.10;;
62582;SDS011;48641;51.676;5.808;2023-03-19T04:51:55;1.98;;;1.00;;
62582;SDS011;48641;51.676;5.808;2023-03-19T04:54:21;2.67;;;1.20;;
62582;SDS011;48641;51.676;5.808;2023-03-19T04:56:48;2.83;;;0.95;;
62582;SDS011;48641;51.676;5.808;2023-03-19T04:59:14;2.22;;;1.10;;
62582;SDS011;48641;51.676;5.808;2023-03-19T05:01:39;3.00;;;1.20;;
62582;SDS011;48641;51.676;5.808;2023-03-19T05:04:05;2.42;;;0.90;;
62582;SDS011;48641;51.676;5.808;2023-03-19T05:06:31;2.60;;;1.10;;
62582;SDS011;48641;51.676;5.808;2023-03-19T05:08:57;2.70;;;1.13;;
62582;SDS011;48641;51.676;5.808;2023-03-19T05:11:22;2.65;;;1.02;;
62582;SDS011;48641;51.676;5.808;2023-03-19T05:13:48;2.80;;;1.20;;
62582;SDS011;48641;51.676;5.808;2023-03-19T05:16:14;2.28;;;0.93;;
62582;SDS011;48641;51.676;5.808;2023-03-19T05:18:39;2.67;;;1.02;;
62582;SDS011;48641;51.676;5.808;2023-03-19T05:21:05;2.33;;;1.20;;
62582;SDS011;48641;51.676;5.808;2023-03-19T05:23:37;2.42;;;1.08;;
62582;SDS011;48641;51.676;5.808;2023-03-19T05:26:03;2.28;;;0.98;;
62582;SDS011;48641;51.676;5.808;2023-03-19T05:28:30;1.85;;;1.00;;
62582;SDS011;48641;51.676;5.808;2023-03-19T05:30:59;2.47;;;1.02;;
62582;SDS011;48641;51.676;5.808;2023-03-19T05:33:25;3.00;;;1.00;;
62582;SDS011;48641;51.676;5.808;2023-03-19T05:35:51;2.90;;;1.00;;
62582;SDS011;48641;51.676;5.808;2023-03-19T05:38:17;1.80;;;0.90;;
62582;SDS011;48641;51.676;5.808;2023-03-19T05:40:43;2.53;;;1.00;;
62582;SDS011;48641;51.676;5.808;2023-03-19T05:43:09;2.97;;;1.10;;
62582;SDS011;48641;51.676;5.808;2023-03-19T05:45:35;3.53;;;1.15;;
62582;SDS011;48641;51.676;5.808;2023-03-19T05:48:02;1.98;;;1.02;;
62582;SDS011;48641;51.676;5.808;2023-03-19T05:50:28;2.47;;;1.05;;
62582;SDS011;48641;51.676;5.808;2023-03-19T05:52:55;2.05;;;0.90;;
62582;SDS011;48641;51.676;5.808;2023-03-19T05:55:21;2.72;;;1.20;;
62582;SDS011;48641;51.676;5.808;2023-03-19T05:57:47;1.83;;;0.90;;
62582;SDS011;48641;51.676;5.808;2023-03-19T06:00:13;2.97;;;1.10;;
62582;SDS011;48641;51.676;5.808;2023-03-19T06:02:40;3.40;;;1.00;;
62582;SDS011;48641;51.676;5.808;2023-03-19T06:05:07;3.38;;;1.20;;
62582;SDS011;48641;51.676;5.808;2023-03-19T06:07:34;2.85;;;1.20;;
62582;SDS011;48641;51.676;5.808;2023-03-19T06:10:00;2.22;;;0.90;;
62582;SDS011;48641;51.676;5.808;2023-03-19T06:12:25;2.17;;;0.98;;
62582;SDS011;48641;51.676;5.808;2023-03-19T06:14:51;2.95;;;1.10;;
62582;SDS011;48641;51.676;5.808;2023-03-19T06:17:17;3.45;;;1.10;;
62582;SDS011;48641;51.676;5.808;2023-03-19T06:19:43;2.92;;;1.20;;
62582;SDS011;48641;51.676;5.808;2023-03-19T06:22:08;2.67;;;1.17;;
62582;SDS011;48641;51.676;5.808;2023-03-19T06:24:34;2.45;;;1.00;;
62582;SDS011;48641;51.676;5.808;2023-03-19T06:27:00;2.90;;;1.20;;
62582;SDS011;48641;51.676;5.808;2023-03-19T06:29:27;3.42;;;1.10;;
62582;SDS011;48641;51.676;5.808;2023-03-19T06:31:52;2.35;;;1.05;;
62582;SDS011;48641;51.676;5.808;2023-03-19T06:34:18;2.40;;;1.10;;
62582;SDS011;48641;51.676;5.808;2023-03-19T06:36:43;2.03;;;1.00;;
62582;SDS011;48641;51.676;5.808;2023-03-19T06:39:09;3.50;;;1.15;;
62582;SDS011;48641;51.676;5.808;2023-03-19T06:41:35;3.13;;;1.15;;
62582;SDS011;48641;51.676;5.808;2023-03-19T06:44:01;2.88;;;1.00;;
62582;SDS011;48641;51.676;5.808;2023-03-19T06:46:27;3.17;;;1.40;;
62582;SDS011;48641;51.676;5.808;2023-03-19T06:48:53;4.38;;;1.40;;
62582;SDS011;48641;51.676;5.808;2023-03-19T06:51:19;3.20;;;1.00;;
62582;SDS011;48641;51.676;5.808;2023-03-19T06:53:44;4.35;;;1.30;;
62582;SDS011;48641;51.676;5.808;2023-03-19T06:56:10;3.13;;;1.33;;
62582;SDS011;48641;51.676;5.808;2023-03-19T06:58:36;3.22;;;1.40;;
62582;SDS011;48641;51.676;5.808;2023-03-19T07:01:02;2.85;;;1.30;;
62582;SDS011;48641;51.676;5.808;2023-03-19T07:03:27;2.20;;;1.08;;
62582;SDS011;48641;51.676;5.808;2023-03-19T07:05:53;2.40;;;1.08;;
62582;SDS011;48641;51.676;5.808;2023-03-19T07:08:19;2.05;;;1.05;;
62582;SDS011;48641;51.676;5.808;2023-03-19T07:10:44;2.08;;;1.00;;
62582;SDS011;48641;51.676;5.808;2023-03-19T07:13:10;3.85;;;1.27;;
62582;SDS011;48641;51.676;5.808;2023-03-19T07:15:36;2.35;;;1.00;;
62582;SDS011;48641;51.676;5.808;2023-03-19T07:18:01;2.88;;;1.15;;
62582;SDS011;48641;51.676;5.808;2023-03-19T07:20:27;2.70;;;1.23;;
62582;SDS011;48641;51.676;5.808;2023-03-19T07:22:53;4.97;;;1.48;;
62582;SDS011;48641;51.676;5.808;2023-03-19T07:25:19;3.20;;;1.25;;
62582;SDS011;48641;51.676;5.808;2023-03-19T07:27:45;3.35;;;1.38;;
62582;SDS011;48641;51.676;5.808;2023-03-19T07:30:11;2.50;;;1.20;;
62582;SDS011;48641;51.676;5.808;2023-03-19T07:32:37;3.30;;;1.30;;
62582;SDS011;48641;51.676;5.808;2023-03-19T07:35:04;2.90;;;1.10;;
62582;SDS011;48641;51.676;5.808;2023-03-19T07:37:31;3.45;;;1.20;;
62582;SDS011;48641;51.676;5.808;2023-03-19T07:39:59;3.08;;;1.50;;
62582;SDS011;48641;51.676;5.808;2023-03-19T07:42:25;3.25;;;1.20;;
62582;SDS011;48641;51.676;5.808;2023-03-19T07:44:51;2.55;;;1.20;;
62582;SDS011;48641;51.676;5.808;2023-03-19T07:47:16;3.67;;;1.50;;
62582;SDS011;48641;51.676;5.808;2023-03-19T07:49:42;3.50;;;1.50;;
62582;SDS011;48641;51.676;5.808;2023-03-19T07:52:08;4.07;;;1.52;;
62582;SDS011;48641;51.676;5.808;2023-03-19T07:54:34;3.97;;;1.52;;
62582;SDS011;48641;51.676;5.808;2023-03-19T07:57:00;4.30;;;1.50;;
62582;SDS011;48641;51.676;5.808;2023-03-19T07:59:26;4.20;;;1.60;;
62582;SDS011;48641;51.676;5.808;2023-03-19T08:01:51;5.18;;;1.60;;
62582;SDS011;48641;51.676;5.808;2023-03-19T08:04:17;7.53;;;1.67;;
62582;SDS011;48641;51.676;5.808;2023-03-19T08:06:42;3.92;;;1.55;;
62582;SDS011;48641;51.676;5.808;2023-03-19T08:09:08;4.88;;;1.50;;
62582;SDS011;48641;51.676;5.808;2023-03-19T08:11:34;3.17;;;1.30;;
62582;SDS011;48641;51.676;5.808;2023-03-19T08:14:00;4.82;;;2.20;;
62582;SDS011;48641;51.676;5.808;2023-03-19T08:16:27;3.90;;;1.60;;
62582;SDS011;48641;51.676;5.808;2023-03-19T08:18:53;4.18;;;1.60;;
62582;SDS011;48641;51.676;5.808;2023-03-19T08:21:19;4.28;;;1.67;;
62582;SDS011;48641;51.676;5.808;2023-03-19T08:23:44;3.47;;;1.70;;
62582;SDS011;48641;51.676;5.808;2023-03-19T08:26:10;4.25;;;1.65;;
62582;SDS011;48641;51.676;5.808;2023-03-19T08:28:36;3.83;;;1.58;;
62582;SDS011;48641;51.676;5.808;2023-03-19T08:31:08;4.28;;;1.75;;
62582;SDS011;48641;51.676;5.808;2023-03-19T08:33:36;3.45;;;1.60;;
62582;SDS011;48641;51.676;5.808;2023-03-19T08:36:03;4.68;;;1.90;;
62582;SDS011;48641;51.676;5.808;2023-03-19T08:38:34;4.30;;;1.77;;
62582;SDS011;48641;51.676;5.808;2023-03-19T08:41:00;5.22;;;1.60;;
62582;SDS011;48641;51.676;5.808;2023-03-19T08:43:28;5.15;;;2.03;;
62582;SDS011;48641;51.676;5.808;2023-03-19T08:48:23;5.32;;;2.15;;
62582;SDS011;48641;51.676;5.808;2023-03-19T08:50:55;4.88;;;2.10;;
62582;SDS011;48641;51.676;5.808;2023-03-19T08:53:22;4.30;;;1.70;;
62582;SDS011;48641;51.676;5.808;2023-03-19T08:56:01;4.88;;;2.08;;
62582;SDS011;48641;51.676;5.808;2023-03-19T08:58:28;5.53;;;1.80;;
62582;SDS011;48641;51.676;5.808;2023-03-19T09:01:08;3.97;;;1.90;;
62582;SDS011;48641;51.676;5.808;2023-03-19T09:03:36;4.10;;;1.83;;
62582;SDS011;48641;51.676;5.808;2023-03-19T09:06:03;4.50;;;1.75;;
62582;SDS011;48641;51.676;5.808;2023-03-19T09:08:30;4.07;;;1.70;;
62582;SDS011;48641;51.676;5.808;2023-03-19T09:10:57;4.15;;;1.40;;
62582;SDS011;48641;51.676;5.808;2023-03-19T09:13:23;5.15;;;1.73;;
62582;SDS011;48641;51.676;5.808;2023-03-19T09:15:49;3.75;;;1.80;;
62582;SDS011;48641;51.676;5.808;2023-03-19T09:18:15;4.50;;;1.80;;
62582;SDS011;48641;51.676;5.808;2023-03-19T09:20:41;3.95;;;1.80;;
62582;SDS011;48641;51.676;5.808;2023-03-19T09:23:07;4.20;;;1.80;;
62582;SDS011;48641;51.676;5.808;2023-03-19T09:25:33;3.65;;;1.65;;
62582;SDS011;48641;51.676;5.808;2023-03-19T09:27:59;3.60;;;1.60;;
62582;SDS011;48641;51.676;5.808;2023-03-19T09:30:25;4.03;;;1.60;;
62582;SDS011;48641;51.676;5.808;2023-03-19T09:32:51;3.95;;;1.92;;
62582;SDS011;48641;51.676;5.808;2023-03-19T09:35:19;4.72;;;1.75;;
62582;SDS011;48641;51.676;5.808;2023-03-19T09:37:46;4.78;;;2.10;;
62582;SDS011;48641;51.676;5.808;2023-03-19T09:40:15;4.28;;;1.70;;
62582;SDS011;48641;51.676;5.808;2023-03-19T09:42:56;5.85;;;1.80;;
62582;SDS011;48641;51.676;5.808;2023-03-19T09:45:37;5.82;;;1.80;;
62582;SDS011;48641;51.676;5.808;2023-03-19T09:48:09;3.70;;;1.45;;
62582;SDS011;48641;51.676;5.808;2023-03-19T09:50:52;4.05;;;1.60;;
62582;SDS011;48641;51.676;5.808;2023-03-19T09:53:22;4.88;;;1.80;;
62582;SDS011;48641;51.676;5.808;2023-03-19T09:56:04;4.93;;;1.80;;
62582;SDS011;48641;51.676;5.808;2023-03-19T09:58:35;5.38;;;1.98;;
62582;SDS011;48641;51.676;5.808;2023-03-19T10:01:01;5.20;;;1.83;;
62582;SDS011;48641;51.676;5.808;2023-03-19T10:06:32;4.88;;;1.80;;
62582;SDS011;48641;51.676;5.808;2023-03-19T10:16:34;4.93;;;1.65;;
62582;SDS011;48641;51.676;5.808;2023-03-19T10:19:04;3.75;;;1.50;;
62582;SDS011;48641;51.676;5.808;2023-03-19T10:21:35;5.20;;;1.88;;
62582;SDS011;48641;51.676;5.808;2023-03-19T10:24:11;3.60;;;1.77;;
62582;SDS011;48641;51.676;5.808;2023-03-19T10:26:41;4.30;;;1.80;;
62582;SDS011;48641;51.676;5.808;2023-03-19T10:29:10;4.53;;;1.67;;
62582;SDS011;48641;51.676;5.808;2023-03-19T10:34:35;3.53;;;1.58;;
62582;SDS011;48641;51.676;5.808;2023-03-19T10:39:38;4.20;;;1.50;;
62582;SDS011;48641;51.676;5.808;2023-03-19T10:47:59;3.75;;;1.63;;
62582;SDS011;48641;51.676;5.808;2023-03-19T10:53:35;4.80;;;1.90;;
62582;SDS011;48641;51.676;5.808;2023-03-19T10:56:03;3.95;;;1.83;;
62582;SDS011;48641;51.676;5.808;2023-03-19T10:58:31;4.00;;;1.60;;
62582;SDS011;48641;51.676;5.808;2023-03-19T11:01:11;4.32;;;1.40;;
62582;SDS011;48641;51.676;5.808;2023-03-19T11:03:38;4.97;;;1.60;;
62582;SDS011;48641;51.676;5.808;2023-03-19T11:06:24;3.40;;;1.40;;
62582;SDS011;48641;51.676;5.808;2023-03-19T11:11:25;4.13;;;1.52;;
62582;SDS011;48641;51.676;5.808;2023-03-19T11:13:57;5.30;;;1.70;;
62582;SDS011;48641;51.676;5.808;2023-03-19T11:16:23;5.18;;;1.50;;
62582;SDS011;48641;51.676;5.808;2023-03-19T11:18:48;5.60;;;1.65;;
62582;SDS011;48641;51.676;5.808;2023-03-19T11:21:27;5.97;;;1.67;;
62582;SDS011;48641;51.676;5.808;2023-03-19T11:24:01;2.60;;;1.30;;
62582;SDS011;48641;51.676;5.808;2023-03-19T11:26:28;4.72;;;1.80;;
62582;SDS011;48641;51.676;5.808;2023-03-19T11:29:03;5.15;;;1.70;;
62582;SDS011;48641;51.676;5.808;2023-03-19T11:31:33;4.97;;;1.67;;
62582;SDS011;48641;51.676;5.808;2023-03-19T11:47:28;7.38;;;2.28;;
62582;SDS011;48641;51.676;5.808;2023-03-19T11:50:03;8.43;;;2.40;;
62582;SDS011;48641;51.676;5.808;2023-03-19T11:53:28;7.03;;;2.60;;
62582;SDS011;48641;51.676;5.808;2023-03-19T12:04:28;10.48;;;3.30;;
62582;SDS011;48641;51.676;5.808;2023-03-19T12:07:07;7.40;;;2.90;;
62582;SDS011;48641;51.676;5.808;2023-03-19T12:12:49;8.82;;;3.70;;
62582;SDS011;48641;51.676;5.808;2023-03-19T12:15:44;7.70;;;3.60;;
62582;SDS011;48641;51.676;5.808;2023-03-19T12:21:19;8.02;;;3.38;;
62582;SDS011;48641;51.676;5.808;2023-03-19T12:24:18;7.43;;;3.50;;
62582;SDS011;48641;51.676;5.808;2023-03-19T12:35:03;9.93;;;4.13;;
62582;SDS011;48641;51.676;5.808;2023-03-19T12:40:25;10.23;;;5.63;;
62582;SDS011;48641;51.676;5.808;2023-03-19T12:43:02;10.52;;;4.97;;
62582;SDS011;48641;51.676;5.808;2023-03-19T12:45:37;10.13;;;4.97;;
62582;SDS011;48641;51.676;5.808;2023-03-19T12:48:16;9.15;;;4.85;;
62582;SDS011;48641;51.676;5.808;2023-03-19T12:50:48;11.20;;;5.53;;
62582;SDS011;48641;51.676;5.808;2023-03-19T12:55:59;10.68;;;5.85;;
62582;SDS011;48641;51.676;5.808;2023-03-19T12:58:39;13.18;;;5.57;;
62582;SDS011;48641;51.676;5.808;2023-03-19T13:01:34;12.25;;;5.55;;
62582;SDS011;48641;51.676;5.808;2023-03-19T13:04:05;13.40;;;6.53;;
62582;SDS011;48641;51.676;5.808;2023-03-19T13:06:48;13.68;;;6.45;;
62582;SDS011;48641;51.676;5.808;2023-03-19T13:09:36;12.65;;;6.55;;
62582;SDS011;48641;51.676;5.808;2023-03-19T13:12:17;14.13;;;6.75;;
62582;SDS011;48641;51.676;5.808;2023-03-19T13:17:29;15.48;;;7.38;;
62582;SDS011;48641;51.676;5.808;2023-03-19T13:20:19;11.18;;;6.00;;
62582;SDS011;48641;51.676;5.808;2023-03-19T13:23:08;12.27;;;6.38;;
62582;SDS011;48641;51.676;5.808;2023-03-19T13:25:41;11.82;;;6.78;;
62582;SDS011;48641;51.676;5.808;2023-03-19T13:28:16;11.10;;;6.15;;
62582;SDS011;48641;51.676;5.808;2023-03-19T13:33:48;11.65;;;7.85;;
62582;SDS011;48641;51.676;5.808;2023-03-19T13:36:17;12.52;;;6.35;;
62582;SDS011;48641;51.676;5.808;2023-03-19T13:38:46;12.88;;;7.38;;
62582;SDS011;48641;51.676;5.808;2023-03-19T13:43:59;12.50;;;7.30;;
62582;SDS011;48641;51.676;5.808;2023-03-19T13:46:45;12.63;;;7.40;;
62582;SDS011;48641;51.676;5.808;2023-03-19T13:49:21;10.55;;;6.13;;
62582;SDS011;48641;51.676;5.808;2023-03-19T13:52:01;13.70;;;7.40;;
62582;SDS011;48641;51.676;5.808;2023-03-19T13:54:35;13.00;;;7.45;;
62582;SDS011;48641;51.676;5.808;2023-03-19T13:57:03;13.02;;;7.55;;
62582;SDS011;48641;51.676;5.808;2023-03-19T13:59:40;11.05;;;7.07;;
62582;SDS011;48641;51.676;5.808;2023-03-19T14:07:42;12.57;;;7.03;;
62582;SDS011;48641;51.676;5.808;2023-03-19T14:12:45;13.77;;;8.00;;
62582;SDS011;48641;51.676;5.808;2023-03-19T14:17:38;14.48;;;8.07;;
62582;SDS011;48641;51.676;5.808;2023-03-19T14:27:50;12.73;;;7.15;;
62582;SDS011;48641;51.676;5.808;2023-03-19T14:30:30;14.85;;;7.82;;
62582;SDS011;48641;51.676;5.808;2023-03-19T14:33:00;16.10;;;8.45;;
62582;SDS011;48641;51.676;5.808;2023-03-19T14:35:31;13.57;;;7.80;;
62582;SDS011;48641;51.676;5.808;2023-03-19T14:38:09;14.63;;;8.25;;
62582;SDS011;48641;51.676;5.808;2023-03-19T14:40:43;13.98;;;8.10;;
62582;SDS011;48641;51.676;5.808;2023-03-19T14:46:26;12.77;;;7.82;;
62582;SDS011;48641;51.676;5.808;2023-03-19T14:52:22;14.25;;;7.93;;
62582;SDS011;48641;51.676;5.808;2023-03-19T14:59:52;15.18;;;10.05;;
62582;SDS011;48641;51.676;5.808;2023-03-19T15:04:51;15.10;;;9.57;;
62582;SDS011;48641;51.676;5.808;2023-03-19T15:07:20;13.73;;;9.00;;
62582;SDS011;48641;51.676;5.808;2023-03-19T15:09:52;14.55;;;8.80;;
62582;SDS011;48641;51.676;5.808;2023-03-19T15:12:23;14.73;;;8.85;;
62582;SDS011;48641;51.676;5.808;2023-03-19T15:17:38;15.30;;;9.43;;
62582;SDS011;48641;51.676;5.808;2023-03-19T15:22:42;13.88;;;8.50;;
62582;SDS011;48641;51.676;5.808;2023-03-19T15:25:09;13.63;;;8.77;;
62582;SDS011;48641;51.676;5.808;2023-03-19T15:27:37;15.45;;;8.77;;
62582;SDS011;48641;51.676;5.808;2023-03-19T15:30:17;14.05;;;8.75;;
62582;SDS011;48641;51.676;5.808;2023-03-19T15:32:53;13.50;;;8.77;;
62582;SDS011;48641;51.676;5.808;2023-03-19T15:35:20;13.88;;;8.85;;
62582;SDS011;48641;51.676;5.808;2023-03-19T15:37:50;15.88;;;9.75;;
62582;SDS011;48641;51.676;5.808;2023-03-19T15:40:20;16.08;;;8.77;;
62582;SDS011;48641;51.676;5.808;2023-03-19T15:42:51;13.88;;;8.90;;
62582;SDS011;48641;51.676;5.808;2023-03-19T15:45:18;13.00;;;8.43;;
62582;SDS011;48641;51.676;5.808;2023-03-19T15:47:50;15.60;;;9.57;;
62582;SDS011;48641;51.676;5.808;2023-03-19T15:50:23;15.18;;;8.98;;
62582;SDS011;48641;51.676;5.808;2023-03-19T15:53:05;13.05;;;8.93;;
62582;SDS011;48641;51.676;5.808;2023-03-19T15:55:34;12.60;;;8.25;;
62582;SDS011;48641;51.676;5.808;2023-03-19T15:58:05;14.00;;;8.35;;
62582;SDS011;48641;51.676;5.808;2023-03-19T16:00:39;15.20;;;9.27;;
62582;SDS011;48641;51.676;5.808;2023-03-19T16:03:06;13.70;;;9.00;;
62582;SDS011;48641;51.676;5.808;2023-03-19T16:05:35;15.52;;;9.75;;
62582;SDS011;48641;51.676;5.808;2023-03-19T16:08:02;15.10;;;8.98;;
62582;SDS011;48641;51.676;5.808;2023-03-19T16:10:43;15.73;;;9.60;;
62582;SDS011;48641;51.676;5.808;2023-03-19T16:15:53;15.75;;;9.15;;
62582;SDS011;48641;51.676;5.808;2023-03-19T16:18:28;14.55;;;9.02;;
62582;SDS011;48641;51.676;5.808;2023-03-19T16:21:08;14.10;;;8.55;;
62582;SDS011;48641;51.676;5.808;2023-03-19T16:23:49;18.10;;;9.95;;
62582;SDS011;48641;51.676;5.808;2023-03-19T16:26:19;15.95;;;8.32;;
62582;SDS011;48641;51.676;5.808;2023-03-19T16:28:54;13.63;;;8.55;;
62582;SDS011;48641;51.676;5.808;2023-03-19T16:31:28;12.32;;;7.88;;
62582;SDS011;48641;51.676;5.808;2023-03-19T16:33:56;14.75;;;9.10;;
62582;SDS011;48641;51.676;5.808;2023-03-19T16:36:22;16.50;;;8.93;;
62582;SDS011;48641;51.676;5.808;2023-03-19T16:38:52;12.50;;;8.13;;
62582;SDS011;48641;51.676;5.808;2023-03-19T16:41:25;14.02;;;8.48;;
62582;SDS011;48641;51.676;5.808;2023-03-19T16:43:58;15.27;;;9.02;;
62582;SDS011;48641;51.676;5.808;2023-03-19T16:46:35;15.38;;;8.50;;
62582;SDS011;48641;51.676;5.808;2023-03-19T16:49:01;16.65;;;8.75;;
62582;SDS011;48641;51.676;5.808;2023-03-19T16:51:26;12.80;;;8.02;;
62582;SDS011;48641;51.676;5.808;2023-03-19T16:53:52;14.18;;;8.52;;
62582;SDS011;48641;51.676;5.808;2023-03-19T16:56:18;15.13;;;9.13;;
62582;SDS011;48641;51.676;5.808;2023-03-19T16:58:44;13.45;;;7.80;;
62582;SDS011;48641;51.676;5.808;2023-03-19T17:01:12;13.48;;;8.27;;
62582;SDS011;48641;51.676;5.808;2023-03-19T17:03:44;14.68;;;8.18;;
62582;SDS011;48641;51.676;5.808;2023-03-19T17:06:11;13.80;;;8.02;;
62582;SDS011;48641;51.676;5.808;2023-03-19T17:08:38;15.25;;;8.25;;